createdAt,value
2023-05-22T00:00:20.238Z,22.46
2023-05-22T00:02:48.603Z,22.47
2023-05-22T00:05:20.713Z,22.47
2023-05-22T00:07:48.730Z,22.50
2023-05-22T00:10:17.101Z,22.44
2023-05-22T00:12:44.996Z,22.39
2023-05-22T00:15:13.595Z,22.38
2023-05-22T00:17:44.437Z,22.36
2023-05-22T00:20:13.190Z,22.38
2023-05-22T00:22:41.101Z,22.13
2023-05-22T00:25:11.380Z,21.87
2023-05-22T00:27:39.543Z,21.62
2023-05-22T00:30:09.327Z,21.56
2023-05-22T00:32:37.377Z,21.64
2023-05-22T00:35:08.180Z,21.68
2023-05-22T00:37:36.348Z,21.75
2023-05-22T00:40:06.078Z,21.80
2023-05-22T00:42:33.909Z,21.86
2023-05-22T00:45:02.221Z,21.91
2023-05-22T00:47:30.317Z,21.77
2023-05-22T00:49:58.524Z,21.79
2023-05-22T00:52:27.847Z,21.86
2023-05-22T00:54:55.803Z,21.82
2023-05-22T00:57:24.578Z,21.86
2023-05-22T00:59:52.688Z,21.92
2023-05-22T01:02:21.503Z,21.94
2023-05-22T01:04:49.928Z,21.97
2023-05-22T01:07:18.760Z,22.02
2023-05-22T01:09:47.941Z,21.94
2023-05-22T01:12:25.751Z,21.71
2023-05-22T01:15:05.018Z,21.66
2023-05-22T01:17:40.915Z,21.66
2023-05-22T01:20:18.754Z,21.69
2023-05-22T01:23:11.940Z,21.80
2023-05-22T01:26:09.629Z,21.76
2023-05-22T01:28:57.275Z,21.71
2023-05-22T01:31:29.532Z,21.76
2023-05-22T01:33:59.868Z,21.78
2023-05-22T01:36:32.554Z,21.81
2023-05-22T01:39:01.754Z,21.89
2023-05-22T01:41:30.624Z,21.89
2023-05-22T01:43:58.922Z,21.90
2023-05-22T01:46:28.873Z,21.91
2023-05-22T01:48:56.777Z,22.00
2023-05-22T01:51:32.114Z,22.01
2023-05-22T01:54:06.198Z,22.01
2023-05-22T01:56:40.633Z,22.03
2023-05-22T01:59:15.239Z,22.05
2023-05-22T02:01:45.132Z,22.03
2023-05-22T02:04:16.378Z,22.07
2023-05-22T02:06:46.156Z,22.09
2023-05-22T02:09:17.080Z,22.05
2023-05-22T02:11:46.367Z,22.03
2023-05-22T02:14:16.125Z,22.04
2023-05-22T02:16:47.651Z,22.05
2023-05-22T02:19:15.976Z,22.02
2023-05-22T02:21:44.633Z,21.97
2023-05-22T02:24:12.927Z,21.93
2023-05-22T02:26:42.507Z,21.92
2023-05-22T02:29:10.289Z,21.93
2023-05-22T02:31:38.077Z,21.87
2023-05-22T02:34:07.235Z,21.77
2023-05-22T02:36:35.047Z,21.71
2023-05-22T02:39:03.056Z,21.66
2023-05-22T02:41:31.096Z,21.58
2023-05-22T02:43:59.103Z,21.50
2023-05-22T02:46:26.966Z,21.35
2023-05-22T02:48:54.753Z,21.35
2023-05-22T02:51:24.128Z,21.31
2023-05-22T02:53:52.016Z,21.34
2023-05-22T02:56:21.057Z,21.32
2023-05-22T02:58:48.972Z,21.30
2023-05-22T03:01:16.898Z,21.31
2023-05-22T03:03:45.235Z,21.29
2023-05-22T03:06:13.312Z,21.25
2023-05-22T03:08:44.426Z,21.23
2023-05-22T03:11:12.409Z,21.26
2023-05-22T03:13:40.404Z,21.29
2023-05-22T03:16:08.414Z,21.29
2023-05-22T03:18:38.656Z,21.32
2023-05-22T03:21:06.608Z,21.35
2023-05-22T03:23:34.480Z,21.36
2023-05-22T03:26:03.838Z,21.35
2023-05-22T03:28:35.966Z,21.34
2023-05-22T03:31:03.999Z,21.34
2023-05-22T03:33:39.980Z,21.35
2023-05-22T03:36:09.675Z,21.38
2023-05-22T03:38:37.699Z,21.39
2023-05-22T03:41:07.885Z,21.36
2023-05-22T03:43:35.825Z,21.43
2023-05-22T03:46:04.109Z,21.37
2023-05-22T03:48:35.452Z,21.38
2023-05-22T03:51:03.529Z,21.30
2023-05-22T03:53:31.366Z,21.24
2023-05-22T03:56:00.185Z,21.19
2023-05-22T03:58:29.299Z,21.17
2023-05-22T04:00:58.687Z,21.16
2023-05-22T04:03:27.503Z,21.04
2023-05-22T04:05:56.869Z,21.04
2023-05-22T04:08:24.803Z,21.07
2023-05-22T04:10:54.403Z,21.07
2023-05-22T04:13:22.284Z,21.12
2023-05-22T04:15:52.817Z,21.03
2023-05-22T04:18:20.738Z,21.00
2023-05-22T04:20:51.822Z,20.99
2023-05-22T04:23:20.063Z,20.94
2023-05-22T04:25:48.043Z,20.89
2023-05-22T04:28:17.607Z,20.91
2023-05-22T04:30:47.407Z,20.94
2023-05-22T04:33:18.168Z,20.93
2023-05-22T04:35:46.472Z,21.01
2023-05-22T04:38:15.351Z,21.01
2023-05-22T04:40:43.636Z,20.97
2023-05-22T04:43:11.624Z,20.96
2023-05-22T04:45:42.284Z,21.00
2023-05-22T04:50:41.651Z,20.93
2023-05-22T04:53:09.776Z,20.93
2023-05-22T04:55:37.740Z,20.97
2023-05-22T04:58:06.434Z,20.98
2023-05-22T05:00:34.554Z,21.04
2023-05-22T05:03:02.565Z,21.05
2023-05-22T05:05:30.666Z,21.09
2023-05-22T05:07:59.778Z,21.07
2023-05-22T05:10:27.927Z,21.09
2023-05-22T05:12:55.788Z,21.11
2023-05-22T05:15:23.918Z,21.09
2023-05-22T05:17:52.044Z,21.01
2023-05-22T05:20:21.986Z,21.03
2023-05-22T05:22:50.162Z,20.97
2023-05-22T05:25:20.388Z,21.02
2023-05-22T05:27:48.334Z,21.06
2023-05-22T05:30:20.567Z,21.11
2023-05-22T05:33:07.198Z,21.15
2023-05-22T05:35:50.399Z,21.11
2023-05-22T05:38:19.488Z,21.08
2023-05-22T05:40:50.251Z,21.06
2023-05-22T05:43:18.633Z,21.05
2023-05-22T05:45:50.303Z,21.01
2023-05-22T05:48:18.363Z,21.06
2023-05-22T05:50:48.453Z,21.08
2023-05-22T05:53:17.030Z,21.08
2023-05-22T05:55:51.740Z,21.07
2023-05-22T05:58:19.784Z,21.13
2023-05-22T06:01:05.805Z,21.12
2023-05-22T06:03:33.784Z,21.02
2023-05-22T06:06:17.463Z,21.09
2023-05-22T06:09:17.234Z,21.01
2023-05-22T06:12:06.352Z,21.03
2023-05-22T06:14:34.385Z,20.92
2023-05-22T06:17:02.173Z,20.91
2023-05-22T06:19:30.208Z,20.93
2023-05-22T06:21:58.229Z,20.81
2023-05-22T06:24:26.113Z,20.68
2023-05-22T06:26:53.955Z,20.61
2023-05-22T06:29:23.245Z,20.47
2023-05-22T06:31:53.519Z,20.40
2023-05-22T06:34:23.426Z,20.29
2023-05-22T06:36:52.531Z,20.33
2023-05-22T06:39:25.027Z,20.22
2023-05-22T06:42:09.297Z,20.28
2023-05-22T06:44:58.779Z,20.22
2023-05-22T06:47:35.673Z,20.18
2023-05-22T06:50:03.555Z,20.11
2023-05-22T06:52:31.893Z,20.12
2023-05-22T06:55:04.507Z,20.18
2023-05-22T06:57:36.005Z,20.21
2023-05-22T07:00:10.778Z,20.09
2023-05-22T07:02:55.239Z,19.96
2023-05-22T07:05:33.572Z,19.90
2023-05-22T07:08:02.781Z,19.94
2023-05-22T07:10:30.837Z,19.95
2023-05-22T07:13:00.206Z,20.04
2023-05-22T07:15:29.894Z,20.10
2023-05-22T07:17:59.795Z,20.01
2023-05-22T07:20:27.991Z,20.12
2023-05-22T07:23:08.913Z,20.07
2023-05-22T07:25:38.256Z,19.93
2023-05-22T07:28:08.904Z,19.92
2023-05-22T07:30:43.189Z,19.91
2023-05-22T07:33:11.803Z,19.90
2023-05-22T07:35:40.100Z,19.93
2023-05-22T07:38:09.184Z,19.88
2023-05-22T07:40:39.113Z,19.87
2023-05-22T07:43:08.083Z,19.89
2023-05-22T07:45:38.316Z,19.90
2023-05-22T07:48:11.874Z,19.84
2023-05-22T07:50:39.877Z,19.83
2023-05-22T07:53:08.057Z,19.79
2023-05-22T07:55:39.571Z,19.65
2023-05-22T07:58:08.474Z,19.54
2023-05-22T08:00:39.004Z,19.50
2023-05-22T08:03:06.960Z,19.45
2023-05-22T08:05:36.418Z,19.59
2023-05-22T08:08:04.791Z,19.56
2023-05-22T08:10:46.552Z,19.59
2023-05-22T08:13:16.806Z,19.70
2023-05-22T08:15:44.785Z,19.63
2023-05-22T08:18:13.659Z,19.62
2023-05-22T08:20:42.936Z,19.67
2023-05-22T08:23:11.008Z,19.72
2023-05-22T08:25:38.903Z,19.69
2023-05-22T08:28:07.501Z,19.73
2023-05-22T08:30:37.569Z,19.78
2023-05-22T08:33:06.194Z,19.84
2023-05-22T08:35:34.120Z,19.90
2023-05-22T08:38:03.346Z,19.78
2023-05-22T08:40:38.011Z,19.83
2023-05-22T08:43:06.872Z,19.91
2023-05-22T08:45:35.107Z,19.93
2023-05-22T08:48:06.760Z,19.88
2023-05-22T08:50:37.418Z,19.91
2023-05-22T08:53:09.345Z,19.93
2023-05-22T08:55:37.918Z,19.98
2023-05-22T08:58:06.798Z,19.98
2023-05-22T09:00:35.190Z,19.81
2023-05-22T09:03:03.530Z,19.78
2023-05-22T09:05:31.483Z,19.84
2023-05-22T09:08:08.375Z,19.88
2023-05-22T09:10:46.207Z,19.87
2023-05-22T09:13:25.335Z,19.92
2023-05-22T09:15:53.366Z,19.94
2023-05-22T09:18:22.106Z,19.93
2023-05-22T09:20:50.180Z,19.94
2023-05-22T09:23:21.678Z,19.91
2023-05-22T09:25:52.359Z,19.94
2023-05-22T09:28:21.735Z,20.02
2023-05-22T09:30:50.896Z,20.05
2023-05-22T09:33:19.156Z,20.13
2023-05-22T09:35:48.605Z,20.12
2023-05-22T09:38:17.991Z,20.14
2023-05-22T09:40:45.985Z,20.21
2023-05-22T09:43:19.176Z,20.19
2023-05-22T09:45:47.105Z,20.23
2023-05-22T09:48:18.120Z,20.38
2023-05-22T09:50:54.596Z,20.48
2023-05-22T09:53:29.054Z,20.61
2023-05-22T09:55:58.760Z,20.70
2023-05-22T09:58:34.591Z,20.81
2023-05-22T10:01:03.337Z,20.94
2023-05-22T10:03:32.773Z,21.08
2023-05-22T10:06:02.392Z,21.22
2023-05-22T10:08:34.621Z,21.19
2023-05-22T10:11:03.611Z,21.13
2023-05-22T10:13:33.986Z,21.16
2023-05-22T10:16:05.740Z,21.27
2023-05-22T10:18:34.135Z,21.27
2023-05-22T10:21:03.622Z,21.32
2023-05-22T10:23:32.003Z,21.34
2023-05-22T10:26:00.484Z,21.38
2023-05-22T10:28:37.032Z,21.43
2023-05-22T10:31:10.997Z,21.55
2023-05-22T10:34:05.925Z,21.57
2023-05-22T10:36:48.503Z,21.70
2023-05-22T10:39:34.913Z,21.68
2023-05-22T10:42:03.602Z,21.67
2023-05-22T10:44:34.549Z,21.66
2023-05-22T10:47:10.305Z,21.69
2023-05-22T10:49:39.156Z,21.71
2023-05-22T10:52:09.884Z,21.72
2023-05-22T10:54:42.167Z,21.80
2023-05-22T10:57:16.061Z,21.90
2023-05-22T10:59:48.352Z,22.01
2023-05-22T11:02:23.637Z,22.06
2023-05-22T11:04:52.194Z,22.16
2023-05-22T11:07:20.821Z,22.17
2023-05-22T11:09:49.017Z,22.27
2023-05-22T11:12:25.082Z,22.35
2023-05-22T11:14:56.881Z,22.39
2023-05-22T11:17:27.032Z,22.38
2023-05-22T11:20:02.423Z,22.49
2023-05-22T11:22:35.042Z,22.66
2023-05-22T11:25:06.617Z,22.85
2023-05-22T11:27:35.056Z,22.98
2023-05-22T11:30:05.836Z,23.03
2023-05-22T11:32:36.656Z,23.09
2023-05-22T11:35:05.438Z,23.14
2023-05-22T11:37:33.720Z,23.20
2023-05-22T11:40:05.910Z,23.31
2023-05-22T11:42:33.854Z,23.29
2023-05-22T11:45:01.987Z,23.41
2023-05-22T11:47:32.103Z,23.54
2023-05-22T11:50:01.562Z,23.60
2023-05-22T11:52:32.843Z,23.54
2023-05-22T11:55:01.667Z,23.56
2023-05-22T11:57:29.690Z,23.55
2023-05-22T11:59:58.369Z,23.64
2023-05-22T12:02:26.508Z,23.66
2023-05-22T12:04:57.785Z,23.80
2023-05-22T12:07:27.589Z,23.88
2023-05-22T12:09:57.753Z,24.01
2023-05-22T12:12:27.059Z,24.11
2023-05-22T12:14:55.690Z,24.11
2023-05-22T12:17:24.085Z,24.18
2023-05-22T12:19:52.252Z,24.14
2023-05-22T12:22:23.540Z,24.17
2023-05-22T12:24:54.631Z,24.18
2023-05-22T12:27:22.615Z,24.25
2023-05-22T12:29:52.841Z,24.27
2023-05-22T12:32:23.132Z,24.17
2023-05-22T12:34:51.138Z,24.11
2023-05-22T12:37:22.730Z,24.06
2023-05-22T12:39:58.293Z,24.12
2023-05-22T12:42:29.583Z,23.94
2023-05-22T12:45:00.626Z,23.75
2023-05-22T12:47:28.643Z,23.68
2023-05-22T12:49:56.693Z,23.62
2023-05-22T12:52:26.021Z,23.30
2023-05-22T12:54:53.981Z,23.29
2023-05-22T12:57:21.912Z,23.34
2023-05-22T12:59:49.775Z,23.08
2023-05-22T13:02:18.070Z,22.91
2023-05-22T13:04:45.977Z,23.05
2023-05-22T13:07:13.894Z,23.27
2023-05-22T13:09:43.181Z,23.47
2023-05-22T13:12:11.959Z,23.38
2023-05-22T13:14:40.557Z,23.20
2023-05-22T13:17:08.932Z,23.23
2023-05-22T13:19:36.991Z,23.32
2023-05-22T13:22:07.450Z,23.44
2023-05-22T13:24:35.639Z,23.60
2023-05-22T13:27:05.253Z,23.50
2023-05-22T13:29:33.408Z,23.45
2023-05-22T13:32:01.889Z,23.41
2023-05-22T13:34:30.442Z,23.50
2023-05-22T13:36:58.413Z,23.63
2023-05-22T13:39:26.466Z,23.67
2023-05-22T13:41:54.435Z,23.55
2023-05-22T13:44:24.042Z,23.54
2023-05-22T13:46:52.094Z,23.37
2023-05-22T13:49:19.906Z,23.40
2023-05-22T13:51:47.688Z,23.38
2023-05-22T13:54:16.167Z,23.33
2023-05-22T13:56:44.047Z,23.35
2023-05-22T13:59:11.968Z,23.47
2023-05-22T14:01:41.664Z,23.22
2023-05-22T14:04:09.519Z,23.18
2023-05-22T14:06:37.562Z,23.17
2023-05-22T14:09:07.992Z,23.16
2023-05-22T14:11:36.167Z,23.00
2023-05-22T14:14:04.136Z,22.60
2023-05-22T14:16:32.106Z,22.50
2023-05-22T14:19:01.891Z,22.39
2023-05-22T14:21:29.865Z,22.33
2023-05-22T14:23:58.208Z,22.37
2023-05-22T14:26:26.156Z,22.26
2023-05-22T14:28:54.345Z,22.24
2023-05-22T14:31:22.384Z,22.17
2023-05-22T14:33:50.584Z,22.25
2023-05-22T14:36:20.000Z,22.21
2023-05-22T14:38:47.888Z,22.05
2023-05-22T14:41:16.315Z,22.32
2023-05-22T14:43:44.263Z,22.33
2023-05-22T14:46:12.693Z,22.31
2023-05-22T14:48:40.836Z,22.13
2023-05-22T14:51:08.688Z,22.32
2023-05-22T14:53:38.391Z,22.57
2023-05-22T14:56:07.036Z,22.77
2023-05-22T14:58:34.961Z,22.64
2023-05-22T15:01:02.984Z,22.75
2023-05-22T15:03:31.528Z,22.88
2023-05-22T15:05:59.509Z,22.84
2023-05-22T15:08:27.462Z,23.07
2023-05-22T15:10:56.967Z,23.16
2023-05-22T15:13:24.869Z,23.20
2023-05-22T15:15:52.955Z,23.30
2023-05-22T15:18:21.262Z,23.29
2023-05-22T15:20:49.752Z,23.38
2023-05-22T15:23:17.796Z,23.55
2023-05-22T15:25:46.803Z,23.59
2023-05-22T15:28:16.315Z,23.67
2023-05-22T15:30:44.241Z,23.79
2023-05-22T15:33:12.777Z,23.83
2023-05-22T15:35:42.053Z,23.77
2023-05-22T15:38:12.673Z,23.77
2023-05-22T15:40:41.865Z,23.58
2023-05-22T15:43:09.910Z,23.59
2023-05-22T15:45:39.789Z,23.53
2023-05-22T15:48:08.462Z,23.48
2023-05-22T15:50:36.453Z,23.55
2023-05-22T15:53:04.811Z,23.32
2023-05-22T15:55:33.475Z,23.30
2023-05-22T15:58:02.733Z,23.23
2023-05-22T16:00:30.889Z,23.02
2023-05-22T16:03:00.286Z,22.98
2023-05-22T16:05:31.333Z,23.11
2023-05-22T16:08:01.333Z,23.19
2023-05-22T16:10:29.162Z,23.16
2023-05-22T16:12:57.051Z,23.15
2023-05-22T16:15:25.253Z,23.19
2023-05-22T16:17:54.545Z,23.38
2023-05-22T16:20:23.919Z,23.42
2023-05-22T16:22:52.347Z,23.52
2023-05-22T16:25:21.053Z,23.43
2023-05-22T16:27:49.387Z,23.42
2023-05-22T16:30:18.135Z,23.26
2023-05-22T16:32:46.738Z,23.22
2023-05-22T16:35:15.531Z,22.85
2023-05-22T16:37:44.703Z,22.91
2023-05-22T16:40:13.233Z,23.02
2023-05-22T16:42:41.245Z,23.13
2023-05-22T16:45:09.950Z,23.24
2023-05-22T16:47:37.830Z,22.95
2023-05-22T16:50:07.397Z,22.91
2023-05-22T16:52:35.468Z,22.82
2023-05-22T16:55:05.431Z,22.43
2023-05-22T16:57:33.325Z,22.09
2023-05-22T17:00:01.575Z,22.09
2023-05-22T17:02:29.801Z,22.17
2023-05-22T17:04:57.974Z,22.35
2023-05-22T17:07:26.534Z,22.19
2023-05-22T17:09:54.343Z,22.32
2023-05-22T17:12:23.753Z,22.38
2023-05-22T17:14:52.050Z,22.16
2023-05-22T17:17:20.010Z,22.28
2023-05-22T17:19:47.849Z,22.42
2023-05-22T17:22:16.639Z,22.44
2023-05-22T17:24:45.060Z,22.57
2023-05-22T17:27:24.006Z,22.66
2023-05-22T17:30:01.179Z,22.66
2023-05-22T17:32:29.078Z,22.57
2023-05-22T17:34:56.987Z,22.44
2023-05-22T17:37:24.962Z,22.46
2023-05-22T17:39:52.844Z,22.31
2023-05-22T17:42:20.952Z,22.21
2023-05-22T17:44:49.314Z,22.11
2023-05-22T17:47:18.941Z,22.15
2023-05-22T17:49:47.204Z,22.11
2023-05-22T17:52:15.508Z,22.04
2023-05-22T17:54:43.337Z,21.88
2023-05-22T17:57:11.232Z,21.77
2023-05-22T17:59:40.612Z,21.69
2023-05-22T18:02:09.212Z,21.65
2023-05-22T18:04:38.496Z,21.71
2023-05-22T18:07:06.744Z,21.63
2023-05-22T18:09:34.636Z,21.61
2023-05-22T18:12:04.632Z,21.47
2023-05-22T18:14:32.708Z,21.54
2023-05-22T18:17:00.614Z,21.44
2023-05-22T18:19:28.724Z,21.31
2023-05-22T18:21:58.115Z,21.37
2023-05-22T18:24:28.826Z,21.41
2023-05-22T18:26:56.744Z,21.28
2023-05-22T18:29:24.744Z,21.41
2023-05-22T18:31:52.683Z,21.41
2023-05-22T18:34:20.609Z,21.34
2023-05-22T18:36:49.750Z,21.10
2023-05-22T18:39:19.135Z,21.04
2023-05-22T18:41:47.360Z,20.85
2023-05-22T18:44:15.224Z,20.72
2023-05-22T18:46:43.014Z,20.69
2023-05-22T18:49:10.911Z,20.37
2023-05-22T18:51:38.895Z,20.39
2023-05-22T18:54:06.800Z,20.22
2023-05-22T18:56:36.677Z,20.29
2023-05-22T18:59:04.986Z,20.40
2023-05-22T19:01:33.184Z,20.32
2023-05-22T19:04:01.828Z,20.38
2023-05-22T19:06:30.508Z,20.28
2023-05-22T19:08:58.886Z,20.20
2023-05-22T19:11:27.526Z,20.18
2023-05-22T19:13:57.003Z,20.14
2023-05-22T19:16:24.766Z,20.19
2023-05-22T19:18:52.561Z,20.18
2023-05-22T19:21:20.347Z,20.23
2023-05-22T19:23:48.469Z,20.24
2023-05-22T19:26:16.409Z,20.11
2023-05-22T19:28:44.321Z,20.06
2023-05-22T19:31:13.614Z,20.02
2023-05-22T19:33:41.556Z,20.11
2023-05-22T19:36:09.416Z,20.17
2023-05-22T19:38:37.345Z,20.29
2023-05-22T19:41:05.420Z,20.17
2023-05-22T19:43:33.470Z,20.08
2023-05-22T19:46:01.421Z,19.84
2023-05-22T19:48:33.147Z,19.94
2023-05-22T19:51:01.068Z,19.87
2023-05-22T19:53:29.113Z,19.82
2023-05-22T19:55:57.149Z,19.69
2023-05-22T19:58:24.996Z,19.64
2023-05-22T20:00:53.066Z,19.62
2023-05-22T20:03:21.126Z,19.65
2023-05-22T20:05:52.484Z,19.69
2023-05-22T20:08:21.642Z,19.63
2023-05-22T20:10:50.048Z,19.69
2023-05-22T20:13:18.061Z,19.75
2023-05-22T20:15:47.816Z,19.88
2023-05-22T20:18:16.995Z,19.84
2023-05-22T20:20:45.008Z,19.91
2023-05-22T20:23:14.222Z,19.93
2023-05-22T20:25:42.674Z,19.88
2023-05-22T20:28:11.075Z,19.72
2023-05-22T20:30:39.051Z,19.62
2023-05-22T20:33:07.378Z,19.62
2023-05-22T20:35:35.634Z,19.58
2023-05-22T20:38:04.187Z,19.61
2023-05-22T20:40:34.140Z,19.56
2023-05-22T20:43:03.754Z,19.29
2023-05-22T20:45:31.754Z,19.28
2023-05-22T20:48:00.407Z,19.28
2023-05-22T20:50:28.434Z,19.15
2023-05-22T20:52:57.061Z,19.06
2023-05-22T20:55:25.535Z,19.04
2023-05-22T20:57:54.728Z,19.02
2023-05-22T21:00:22.668Z,18.92
2023-05-22T21:02:51.426Z,18.80
2023-05-22T21:05:20.525Z,18.53
2023-05-22T21:07:48.487Z,18.67
2023-05-22T21:10:16.622Z,18.81
2023-05-22T21:12:44.524Z,18.83
2023-05-22T21:15:14.148Z,18.84
2023-05-22T21:17:43.076Z,18.93
2023-05-22T21:20:11.930Z,18.91
2023-05-22T21:22:39.808Z,18.85
2023-05-22T21:25:09.082Z,18.89
2023-05-22T21:27:36.851Z,18.88
2023-05-22T21:30:06.526Z,18.90
2023-05-22T21:32:36.018Z,18.88
2023-05-22T21:35:03.936Z,19.00
2023-05-22T21:37:31.815Z,18.82
2023-05-22T21:39:59.700Z,18.87
2023-05-22T21:42:34.794Z,18.81
2023-05-22T21:45:13.991Z,18.81
2023-05-22T21:47:43.522Z,18.70
2023-05-22T21:50:12.362Z,18.85
2023-05-22T21:52:40.377Z,18.88
2023-05-22T21:55:08.851Z,18.99
2023-05-22T21:57:37.035Z,18.91
2023-05-22T22:00:06.853Z,18.74
2023-05-22T22:02:35.065Z,18.65
2023-05-22T22:05:04.783Z,18.66
2023-05-22T22:07:32.606Z,18.76
2023-05-22T22:10:00.539Z,18.83
2023-05-22T22:12:29.049Z,18.80
2023-05-22T22:14:57.917Z,18.85
2023-05-22T22:17:25.871Z,18.97
2023-05-22T22:19:56.896Z,19.01
2023-05-22T22:22:26.235Z,19.16
2023-05-22T22:24:53.971Z,19.16
2023-05-22T22:27:21.898Z,19.06
2023-05-22T22:29:49.807Z,18.92
2023-05-22T22:32:17.664Z,18.53
2023-05-22T22:34:45.912Z,18.63
2023-05-22T22:37:13.982Z,18.55
2023-05-22T22:39:43.376Z,18.55
2023-05-22T22:42:11.139Z,18.41
2023-05-22T22:44:38.958Z,18.44
2023-05-22T22:47:07.784Z,18.32
2023-05-22T22:49:37.371Z,18.40
2023-05-22T22:52:05.648Z,18.46
2023-05-22T22:54:33.794Z,18.51
2023-05-22T22:57:04.512Z,18.41
2023-05-22T22:59:33.671Z,18.48
2023-05-22T23:02:01.586Z,18.45
2023-05-22T23:04:29.519Z,18.37
2023-05-22T23:06:58.386Z,18.48
2023-05-22T23:09:26.226Z,18.63
2023-05-22T23:11:54.080Z,18.47
2023-05-22T23:14:24.776Z,18.50
2023-05-22T23:16:52.586Z,18.47
2023-05-22T23:19:20.757Z,18.49
2023-05-22T23:21:48.592Z,18.42
2023-05-22T23:24:18.427Z,18.37
2023-05-22T23:26:46.293Z,18.39
2023-05-22T23:29:14.093Z,18.19
2023-05-22T23:31:43.246Z,18.19
2023-05-22T23:34:11.072Z,18.14
2023-05-22T23:36:38.902Z,18.02
2023-05-22T23:39:06.868Z,18.11
2023-05-22T23:41:35.420Z,17.98
2023-05-22T23:44:03.317Z,17.88
2023-05-22T23:46:31.365Z,17.98
2023-05-22T23:49:00.585Z,18.01
2023-05-22T23:51:28.392Z,18.06
2023-05-22T23:53:56.515Z,18.02
2023-05-22T23:56:24.326Z,17.91
2023-05-22T23:58:52.249Z,17.85
